Time;durP1;ratioP1;P1;durP2;ratioP2;P2;SDS_P1;SDS_P2;PMS_P1;PMS_P2;Temp;Humidity;BMP_temperature;BMP_pressure;BME280_temperature;BME280_humidity;BME280_pressure;Samples;Min_cycle;Max_cycle;Signal;HPM_P1;HPM_P2
2021/06/10 00:00:00;;;;;;;28.55;19.15;;;;;;;13.19;100.00;97209.47;5042240;28;20068;-66
2021/06/10 00:02:26;;;;;;;26.95;18.20;;;;;;;13.17;100.00;97214.53;5038612;28;20080;-65
2021/06/10 00:04:52;;;;;;;30.50;19.70;;;;;;;13.15;100.00;97211.38;5043675;28;20041;-66
2021/06/10 00:07:19;;;;;;;26.92;18.92;;;;;;;13.16;100.00;97210.22;5037131;28;20118;-65
2021/06/10 00:09:45;;;;;;;29.05;19.40;;;;;;;13.18;100.00;97198.81;5042976;28;20117;-64
2021/06/10 00:12:13;;;;;;;28.95;18.73;;;;;;;13.15;100.00;97202.34;5039016;28;20041;-64
2021/06/10 00:14:40;;;;;;;25.88;18.00;;;;;;;13.12;100.00;97208.56;5043245;28;20029;-66
2021/06/10 00:17:06;;;;;;;24.17;17.45;;;;;;;13.12;100.00;97214.84;5038700;28;20493;-63
2021/06/10 00:19:31;;;;;;;26.80;17.38;;;;;;;13.11;100.00;97215.25;5042277;28;20074;-65
2021/06/10 00:21:57;;;;;;;27.55;19.10;;;;;;;13.06;100.00;97210.06;5042813;28;20147;-66
2021/06/10 00:24:23;;;;;;;28.70;19.13;;;;;;;13.05;100.00;97203.75;5036886;28;20244;-66
2021/06/10 00:26:48;;;;;;;26.45;18.08;;;;;;;13.05;100.00;97206.50;5042988;28;20053;-66
2021/06/10 00:29:14;;;;;;;28.25;17.65;;;;;;;13.02;100.00;97215.50;5047203;28;20075;-66
2021/06/10 00:31:39;;;;;;;26.00;17.77;;;;;;;13.03;100.00;97213.53;5058448;28;20041;-65
2021/06/10 00:34:05;;;;;;;23.23;16.15;;;;;;;13.00;100.00;97213.13;5042751;28;20064;-63
2021/06/10 00:36:31;;;;;;;22.80;15.93;;;;;;;13.01;100.00;97214.69;5045454;28;20037;-65
2021/06/10 00:38:57;;;;;;;24.40;16.40;;;;;;;12.98;100.00;97217.41;5039622;28;20127;-67
2021/06/10 00:41:22;;;;;;;30.50;17.13;;;;;;;13.08;100.00;97222.28;5035809;28;20618;-64
2021/06/10 00:43:48;;;;;;;22.48;14.38;;;;;;;13.14;100.00;97220.81;5038757;28;20502;-63
2021/06/10 00:46:14;;;;;;;17.90;12.80;;;;;;;13.22;100.00;97226.38;5036902;28;20785;-64
2021/06/10 00:48:40;;;;;;;16.50;12.23;;;;;;;13.23;100.00;97222.47;5042832;28;20065;-66
2021/06/10 00:51:07;;;;;;;22.08;13.23;;;;;;;13.14;100.00;97220.81;5037565;28;20048;-64
2021/06/10 00:53:33;;;;;;;17.52;12.07;;;;;;;13.04;100.00;97218.69;5042897;28;20041;-66
2021/06/10 00:56:00;;;;;;;16.58;12.48;;;;;;;12.89;100.00;97216.88;5040892;28;20579;-65
2021/06/10 00:58:27;;;;;;;16.30;11.55;;;;;;;12.78;100.00;97222.19;5038057;28;20052;-66
2021/06/10 01:00:53;;;;;;;17.95;12.35;;;;;;;12.81;100.00;97216.75;5042567;28;20037;-64
2021/06/10 01:03:19;;;;;;;17.30;11.35;;;;;;;12.76;100.00;97221.78;5032478;28;20127;-66
2021/06/10 01:05:50;;;;;;;14.82;11.30;;;;;;;12.80;100.00;97222.63;5041619;28;20053;-65
2021/06/10 01:08:38;;;;;;;18.75;11.20;;;;;;;13.00;100.00;97229.63;5036074;28;20045;-65
2021/06/10 01:11:39;;;;;;;15.98;10.20;;;;;;;13.08;100.00;97224.25;5037839;28;20053;-62
2021/06/10 01:14:09;;;;;;;14.98;10.00;;;;;;;13.18;100.00;97221.66;5015485;28;20041;-65
2021/06/10 01:16:37;;;;;;;17.48;10.07;;;;;;;13.20;100.00;97226.78;5023541;28;20053;-64
2021/06/10 01:19:10;;;;;;;13.43;9.93;;;;;;;13.15;100.00;97222.38;5039465;28;20086;-60
2021/06/10 01:21:37;;;;;;;12.93;9.68;;;;;;;13.19;100.00;97222.44;5042000;28;20493;-65
2021/06/10 01:24:26;;;;;;;12.38;8.85;;;;;;;13.24;100.00;97224.06;5038465;28;20764;-63
2021/06/10 01:27:02;;;;;;;14.93;9.35;;;;;;;13.23;100.00;97222.47;5040831;28;20087;-65
2021/06/10 01:29:28;;;;;;;12.95;8.55;;;;;;;13.13;100.00;97221.16;5053428;28;20048;-65
2021/06/10 01:31:54;;;;;;;12.68;9.60;;;;;;;12.96;99.61;97220.53;5041824;28;20045;-67
2021/06/10 01:34:20;;;;;;;10.70;8.52;;;;;;;12.87;100.00;97224.69;5031842;28;20051;-65
2021/06/10 01:36:47;;;;;;;15.98;9.20;;;;;;;12.87;100.00;97208.97;5041369;28;20108;-66
2021/06/10 01:39:17;;;;;;;10.57;8.60;;;;;;;12.87;100.00;97211.72;5036268;28;20040;-66
2021/06/10 01:41:43;;;;;;;11.85;8.90;;;;;;;12.69;100.00;97216.16;5043173;28;20179;-66
2021/06/10 01:44:11;;;;;;;12.10;9.00;;;;;;;12.66;100.00;97211.38;5036646;28;20139;-66
2021/06/10 01:46:37;;;;;;;14.85;8.43;;;;;;;12.76;100.00;97221.78;5042043;28;20049;-66
2021/06/10 01:49:05;;;;;;;15.27;8.82;;;;;;;12.85;100.00;97211.31;5039479;28;20041;-63
2021/06/10 01:51:31;;;;;;;10.35;8.30;;;;;;;12.95;100.00;97215.41;5037720;28;20071;-64
2021/06/10 01:54:01;;;;;;;13.82;8.80;;;;;;;12.90;100.00;97207.47;5039679;28;20068;-66
2021/06/10 01:56:28;;;;;;;11.77;8.80;;;;;;;12.89;100.00;97206.69;5036018;28;20140;-66
2021/06/10 01:58:54;;;;;;;11.93;8.75;;;;;;;12.70;99.79;97207.56;5033664;28;20115;-66
2021/06/10 02:01:25;;;;;;;20.15;11.93;;;;;;;12.51;100.00;97202.91;5035937;28;20127;-67
2021/06/10 02:03:53;;;;;;;21.73;13.57;;;;;;;12.33;100.00;97205.34;5038576;28;20067;-66
2021/06/10 02:06:19;;;;;;;18.15;12.68;;;;;;;12.23;100.00;97201.28;5037200;28;20049;-61
2021/06/10 02:08:47;;;;;;;16.50;11.32;;;;;;;12.19;100.00;97205.09;5041906;28;20045;-65
2021/06/10 02:11:14;;;;;;;17.65;10.70;;;;;;;12.27;100.00;97206.81;5043132;28;20489;-66
2021/06/10 02:13:40;;;;;;;12.90;9.98;;;;;;;12.24;100.00;97211.09;5052917;28;20041;-67
2021/06/10 02:16:07;;;;;;;13.35;9.85;;;;;;;12.32;100.00;97209.28;5039766;28;20042;-65
2021/06/10 02:18:35;;;;;;;12.30;9.10;;;;;;;12.47;100.00;97215.81;5042225;28;20036;-63
2021/06/10 02:21:05;;;;;;;17.85;10.43;;;;;;;12.60;100.00;97211.72;5039909;28;20090;-64
2021/06/10 02:23:31;;;;;;;12.32;9.00;;;;;;;12.63;100.00;97212.94;5036859;28;20052;-65
2021/06/10 02:25:57;;;;;;;10.80;8.27;;;;;;;12.64;100.00;97211.78;5039883;28;20041;-65
2021/06/10 02:28:23;;;;;;;12.30;8.77;;;;;;;12.69;100.00;97213.41;5035140;28;20468;-66
2021/06/10 02:30:49;;;;;;;13.93;8.93;;;;;;;12.78;100.00;97209.25;5040923;28;20033;-64
2021/06/10 02:33:17;;;;;;;11.32;8.90;;;;;;;12.73;99.83;97206.81;5035625;28;20044;-63
2021/06/10 02:35:43;;;;;;;12.30;7.95;;;;;;;12.70;99.53;97207.56;5041131;28;20037;-65
2021/06/10 02:38:10;;;;;;;11.98;7.20;;;;;;;12.58;99.18;97207.75;5034750;28;20056;-63
2021/06/10 02:40:44;;;;;;;11.32;8.10;;;;;;;12.54;99.31;97206.91;5039329;28;20083;-66
2021/06/10 02:43:11;;;;;;;13.02;8.20;;;;;;;12.61;99.31;97209.75;5035016;28;20045;-64
2021/06/10 02:45:38;;;;;;;11.48;8.40;;;;;;;12.69;99.05;97210.66;5039278;28;20045;-65
2021/06/10 02:48:06;;;;;;;10.98;8.43;;;;;;;12.70;98.88;97215.78;5035529;28;20124;-63
2021/06/10 02:50:32;;;;;;;10.60;8.20;;;;;;;12.67;98.53;97213.00;5039175;28;20075;-65
2021/06/10 02:52:59;;;;;;;13.77;7.60;;;;;;;12.59;97.97;97215.63;5039706;28;20041;-64
2021/06/10 02:55:27;;;;;;;11.38;7.50;;;;;;;12.37;97.39;97217.22;5035164;28;20064;-66
2021/06/10 02:57:56;;;;;;;14.05;9.18;;;;;;;12.02;99.16;97212.66;5040860;28;20045;-66
2021/06/10 03:00:25;;;;;;;14.07;9.23;;;;;;;11.81;100.00;97221.25;5031436;28;20205;-65
2021/06/10 03:02:51;;;;;;;15.13;9.02;;;;;;;11.89;100.00;97218.66;5039931;28;20120;-65
2021/06/10 03:05:19;;;;;;;11.32;8.48;;;;;;;12.02;100.00;97212.66;5035388;28;20144;-67
2021/06/10 03:07:46;;;;;;;15.15;8.20;;;;;;;12.11;100.00;97203.41;5053745;28;20033;-66
2021/06/10 03:10:12;;;;;;;14.52;9.25;;;;;;;12.07;100.00;97213.53;5052154;28;20072;-63
2021/06/10 03:12:40;;;;;;;14.95;8.32;;;;;;;11.98;100.00;97206.31;5058216;28;20047;-64
2021/06/10 03:15:08;;;;;;;10.57;8.32;;;;;;;12.12;100.00;97211.28;5046859;28;20048;-65
2021/06/10 03:17:35;;;;;;;11.45;8.93;;;;;;;12.23;100.00;97212.25;5044323;28;20451;-66
2021/06/10 03:20:02;;;;;;;10.02;7.90;;;;;;;12.13;100.00;97209.31;5045001;28;20446;-64
2021/06/10 03:22:28;;;;;;;10.80;8.40;;;;;;;12.08;100.00;97209.59;5040331;28;20124;-66
2021/06/10 03:24:54;;;;;;;14.60;8.50;;;;;;;12.18;100.00;97209.81;5044285;28;20140;-65
2021/06/10 03:27:20;;;;;;;12.52;8.02;;;;;;;12.31;100.00;97204.16;5040526;28;20037;-65
2021/06/10 03:29:47;;;;;;;12.65;7.90;;;;;;;12.37;99.95;97202.66;5045221;28;20044;-65
2021/06/10 03:32:13;;;;;;;11.10;8.23;;;;;;;12.37;99.00;97200.72;5039102;28;20044;-65
2021/06/10 03:34:39;;;;;;;10.68;7.72;;;;;;;12.32;98.47;97211.25;5041842;28;20136;-63
2021/06/10 03:37:06;;;;;;;10.65;7.88;;;;;;;12.31;98.43;97206.88;5039426;28;20037;-63
2021/06/10 03:39:32;;;;;;;10.93;7.88;;;;;;;12.35;98.24;97208.56;5044464;28;20084;-64
2021/06/10 03:41:59;;;;;;;10.82;7.50;;;;;;;12.32;97.75;97201.03;5044275;28;20045;-64
2021/06/10 03:44:27;;;;;;;10.50;7.97;;;;;;;12.33;97.78;97208.09;5038681;28;20532;-65
2021/06/10 03:46:54;;;;;;;10.80;7.85;;;;;;;12.35;97.40;97214.03;5043064;28;20037;-65
2021/06/10 03:49:20;;;;;;;12.75;7.63;;;;;;;12.48;97.51;97209.16;5038353;28;20037;-66
2021/06/10 03:51:53;;;;;;;10.95;7.10;;;;;;;12.43;96.27;97207.50;5043235;28;20075;-65
2021/06/10 03:54:19;;;;;;;10.95;8.25;;;;;;;12.51;96.52;97219.41;5037237;28;20374;-66
2021/06/10 03:56:45;;;;;;;11.75;7.82;;;;;;;12.63;96.47;97221.97;5043431;28;20500;-65
2021/06/10 03:59:11;;;;;;;13.40;7.72;;;;;;;12.80;95.70;97219.88;5041758;28;20053;-65
2021/06/10 04:01:36;;;;;;;15.73;8.00;;;;;;;12.99;94.96;97216.25;5044319;28;20643;-65
2021/06/10 04:04:02;;;;;;;11.68;7.72;;;;;;;12.95;93.65;97220.91;5036769;28;20041;-65
2021/06/10 04:06:32;;;;;;;11.18;7.97;;;;;;;13.15;93.46;97214.13;5041185;28;20052;-65
2021/06/10 04:08:59;;;;;;;9.68;7.40;;;;;;;13.30;93.07;97208.81;5040779;28;20056;-66
2021/06/10 04:11:25;;;;;;;12.40;7.60;;;;;;;13.45;91.35;97218.91;5038079;28;20045;-66
2021/06/10 04:13:50;;;;;;;12.15;7.95;;;;;;;13.70;90.66;97216.47;5042775;28;20393;-65
2021/06/10 04:16:16;;;;;;;12.45;7.68;;;;;;;13.95;89.64;97216.75;5037159;28;20083;-65
2021/06/10 04:18:41;;;;;;;11.98;6.78;;;;;;;14.19;88.57;97219.34;5043140;28;20041;-64
2021/06/10 04:21:07;;;;;;;9.73;6.65;;;;;;;14.28;87.63;97220.66;5035916;28;20079;-66
2021/06/10 04:23:32;;;;;;;8.93;6.95;;;;;;;14.10;87.96;97219.69;5042800;28;20047;-66
2021/06/10 04:25:58;;;;;;;10.75;8.23;;;;;;;14.00;88.69;97223.09;5043435;28;20059;-65
2021/06/10 04:28:23;;;;;;;9.77;6.43;;;;;;;14.10;89.12;97225.19;5038252;28;20277;-66
2021/06/10 04:30:49;;;;;;;11.32;6.70;;;;;;;14.20;89.10;97226.47;5043780;28;20520;-65
2021/06/10 04:33:14;;;;;;;10.20;6.97;;;;;;;14.29;88.84;97224.97;5037194;28;20037;-65
2021/06/10 04:35:40;;;;;;;8.98;6.63;;;;;;;14.39;88.21;97222.72;5043698;28;20072;-66
2021/06/10 04:38:06;;;;;;;9.65;6.85;;;;;;;14.42;88.03;97221.94;5037317;28;20596;-65
2021/06/10 04:40:32;;;;;;;23.50;7.47;;;;;;;14.23;88.57;97220.19;5042406;28;20160;-66
2021/06/10 04:42:57;;;;;;;13.35;7.65;;;;;;;14.32;88.84;97215.16;5043497;28;20602;-64
2021/06/10 04:45:23;;;;;;;11.68;8.23;;;;;;;14.29;89.93;97222.22;5040780;28;20218;-66
2021/06/10 04:47:48;;;;;;;13.30;7.82;;;;;;;14.51;90.14;97222.41;5048046;28;20044;-65
2021/06/10 04:50:13;;;;;;;12.88;8.15;;;;;;;14.63;89.10;97216.66;5046942;28;20051;-67
2021/06/10 04:52:39;;;;;;;10.15;7.25;;;;;;;14.77;88.98;97218.75;5050755;28;20063;-65
2021/06/10 04:55:05;;;;;;;11.35;7.43;;;;;;;14.95;88.58;97212.59;5038182;28;20037;-62
2021/06/10 04:57:33;;;;;;;10.80;7.40;;;;;;;15.07;88.00;97223.28;5041502;28;20652;-66
2021/06/10 04:59:58;;;;;;;13.30;7.38;;;;;;;15.36;86.84;97221.53;5040285;28;20404;-64
2021/06/10 05:02:24;;;;;;;11.23;8.27;;;;;;;15.32;85.85;97219.91;5035367;28;20129;-64
2021/06/10 05:04:49;;;;;;;13.98;8.18;;;;;;;15.25;86.77;97223.41;5042030;28;20037;-66
2021/06/10 05:07:14;;;;;;;12.93;8.70;;;;;;;15.16;88.33;97222.97;5035949;28;20041;-66
2021/06/10 05:09:40;;;;;;;14.68;9.23;;;;;;;15.22;87.53;97222.22;5043121;28;20056;-66
2021/06/10 05:12:06;;;;;;;12.38;8.70;;;;;;;15.16;87.61;97218.25;5037047;28;20108;-65
2021/06/10 05:14:31;;;;;;;10.80;8.90;;;;;;;15.08;89.00;97225.66;5042498;28;20107;-64
2021/06/10 05:16:57;;;;;;;11.82;7.93;;;;;;;15.30;88.94;97228.56;5048966;28;20036;-65
2021/06/10 05:19:22;;;;;;;13.18;8.30;;;;;;;15.48;87.74;97223.16;5041392;28;20258;-65
2021/06/10 05:21:47;;;;;;;12.20;8.00;;;;;;;15.83;86.61;97232.84;5043095;28;20052;-64
2021/06/10 05:24:15;;;;;;;10.02;7.28;;;;;;;16.00;86.38;97223.03;5035394;28;20041;-64
2021/06/10 05:26:41;;;;;;;14.55;8.35;;;;;;;16.15;85.69;97221.09;5043546;28;20037;-65
2021/06/10 05:29:07;;;;;;;11.07;7.95;;;;;;;16.27;85.24;97220.72;5035732;28;20079;-66
2021/06/10 05:31:33;;;;;;;10.93;8.30;;;;;;;16.44;84.69;97216.44;5043711;28;20140;-66
2021/06/10 05:33:58;;;;;;;11.90;7.80;;;;;;;16.48;84.72;97214.44;5045479;28;20135;-65
2021/06/10 05:36:24;;;;;;;16.98;9.50;;;;;;;16.02;87.24;97215.91;5040143;28;20372;-64
2021/06/10 05:38:49;;;;;;;18.80;12.45;;;;;;;16.04;87.41;97221.88;5041614;28;20041;-64
2021/06/10 05:41:15;;;;;;;28.63;17.52;;;;;;;15.07;94.04;97217.78;5054007;28;20045;-65
2021/06/10 05:43:40;;;;;;;17.65;10.20;;;;;;;15.28;91.60;97222.66;5042340;28;20049;-66
2021/06/10 05:46:06;;;;;;;16.85;10.82;;;;;;;15.55;90.66;97225.16;5046611;28;20075;-63
2021/06/10 05:48:32;;;;;;;16.45;10.45;;;;;;;15.75;89.72;97231.22;5051377;28;20043;-65
2021/06/10 05:50:57;;;;;;;18.55;10.00;;;;;;;16.08;89.06;97230.16;5050715;28;20065;-64
2021/06/10 05:53:24;;;;;;;17.40;10.43;;;;;;;16.20;88.33;97229.78;5034816;28;20534;-64
2021/06/10 05:55:50;;;;;;;15.05;10.25;;;;;;;16.12;86.54;97225.44;5039479;28;20056;-66
2021/06/10 05:58:15;;;;;;;19.13;10.63;;;;;;;15.93;87.83;97240.34;5033326;28;20045;-66
2021/06/10 06:00:41;;;;;;;15.48;10.65;;;;;;;16.05;87.66;97228.16;5039034;28;20128;-64
2021/06/10 06:03:08;;;;;;;17.63;11.00;;;;;;;16.13;88.06;97226.22;5034778;28;20040;-65
2021/06/10 06:05:34;;;;;;;15.52;10.98;;;;;;;16.43;86.32;97220.38;5038826;28;20045;-66
2021/06/10 06:08:00;;;;;;;16.98;10.07;;;;;;;16.51;86.24;97223.91;5040364;28;20120;-66
2021/06/10 06:10:29;;;;;;;20.02;12.48;;;;;;;14.72;94.89;97228.16;5035581;28;20389;-66
2021/06/10 06:12:57;;;;;;;19.02;12.65;;;;;;;14.95;94.37;97229.94;5040679;28;20037;-65
2021/06/10 06:15:23;;;;;;;18.25;12.73;;;;;;;14.89;95.63;97234.19;5033745;28;20045;-66
2021/06/10 06:17:49;;;;;;;26.23;14.75;;;;;;;14.86;96.57;97229.47;5040287;28;20041;-66
2021/06/10 06:20:14;;;;;;;22.77;14.43;;;;;;;14.38;99.33;97240.41;5035134;28;20109;-66
2021/06/10 06:22:44;;;;;;;23.30;14.52;;;;;;;14.66;100.00;97237.97;5038628;28;20045;-65
2021/06/10 06:25:11;;;;;;;18.83;13.02;;;;;;;15.17;97.58;97241.91;5031303;28;20079;-64
2021/06/10 06:27:37;;;;;;;19.40;12.45;;;;;;;15.69;93.67;97241.81;5032398;28;20071;-64
2021/06/10 06:30:05;;;;;;;19.65;12.30;;;;;;;16.12;90.47;97238.47;5035461;28;20407;-62
2021/06/10 06:32:30;;;;;;;17.73;11.65;;;;;;;16.34;89.02;97242.84;5040548;28;20147;-64
2021/06/10 06:34:56;;;;;;;19.60;12.93;;;;;;;16.35;88.58;97238.09;5040594;28;20557;-64
2021/06/10 06:37:21;;;;;;;15.95;11.45;;;;;;;16.56;87.74;97238.16;5055111;28;20087;-64
2021/06/10 06:39:46;;;;;;;16.88;11.48;;;;;;;16.77;86.51;97247.66;5058696;28;20555;-65
2021/06/10 06:42:12;;;;;;;19.52;13.27;;;;;;;16.56;86.53;97245.66;5035847;28;20085;-65
2021/06/10 06:44:37;;;;;;;18.38;12.90;;;;;;;16.57;86.38;97239.75;5039215;28;20508;-64
2021/06/10 06:47:03;;;;;;;18.95;13.02;;;;;;;16.62;86.81;97235.81;5038253;28;20037;-63
2021/06/10 06:49:32;;;;;;;19.13;13.07;;;;;;;16.72;85.31;97246.06;5039416;28;20148;-64
2021/06/10 06:51:58;;;;;;;16.90;12.05;;;;;;;16.78;86.52;97243.69;5040303;28;20472;-64
2021/06/10 06:54:23;;;;;;;17.65;11.73;;;;;;;16.92;85.30;97245.72;5034308;28;20159;-63
2021/06/10 06:56:49;;;;;;;16.00;11.50;;;;;;;16.90;84.90;97242.56;5040041;28;20052;-63
2021/06/10 06:59:14;;;;;;;18.73;14.05;;;;;;;16.33;87.63;97241.28;5035299;28;20045;-63
2021/06/10 07:01:40;;;;;;;22.52;14.23;;;;;;;15.59;90.66;97242.53;5037511;28;20033;-63
2021/06/10 07:04:06;;;;;;;23.33;15.00;;;;;;;15.54;92.34;97252.00;5025329;28;20084;-62
2021/06/10 07:06:31;;;;;;;20.02;13.93;;;;;;;16.03;90.46;97253.44;5037539;28;20071;-64
2021/06/10 07:08:57;;;;;;;19.63;12.45;;;;;;;16.71;87.80;97255.56;5039531;28;20374;-64
2021/06/10 07:11:22;;;;;;;17.35;11.88;;;;;;;17.31;84.01;97254.00;5034634;28;20510;-64
2021/06/10 07:13:48;;;;;;;20.50;13.15;;;;;;;17.05;83.25;97254.41;5039548;28;20415;-65
2021/06/10 07:16:13;;;;;;;19.65;12.75;;;;;;;16.57;85.54;97252.78;5043698;28;20040;-64
2021/06/10 07:18:38;;;;;;;17.80;13.40;;;;;;;16.33;87.75;97254.28;5060956;28;20453;-63
2021/06/10 07:21:04;;;;;;;17.95;12.13;;;;;;;16.46;87.16;97243.66;5047776;28;20429;-62
2021/06/10 07:23:29;;;;;;;17.88;12.15;;;;;;;16.38;87.32;97251.94;5039816;28;20051;-64
2021/06/10 07:25:55;;;;;;;17.38;12.50;;;;;;;16.76;87.13;97246.88;5040570;28;20127;-64
2021/06/10 07:28:21;;;;;;;17.95;12.75;;;;;;;16.98;84.77;97244.94;5033736;28;20044;-63
2021/06/10 07:30:47;;;;;;;22.55;12.55;;;;;;;17.63;81.91;97257.88;5044725;28;20465;-64
2021/06/10 07:33:14;;;;;;;17.75;11.93;;;;;;;17.99;79.41;97255.00;5041986;28;20057;-64
2021/06/10 07:35:39;;;;;;;16.75;11.73;;;;;;;19.02;74.51;97247.28;5041277;28;20052;-62
2021/06/10 07:38:06;;;;;;;15.13;11.38;;;;;;;18.70;76.10;97239.97;5033385;28;20045;-62
2021/06/10 07:40:32;;;;;;;16.80;11.85;;;;;;;18.16;78.02;97240.28;5038884;28;20120;-64
2021/06/10 07:42:58;;;;;;;18.00;12.43;;;;;;;17.86;80.08;97251.91;5036630;28;20039;-64
2021/06/10 07:45:27;;;;;;;18.10;12.35;;;;;;;17.55;81.31;97241.28;5032553;28;20128;-64
2021/06/10 07:47:53;;;;;;;17.52;12.18;;;;;;;18.02;81.66;97251.44;5039382;28;20037;-64
2021/06/10 07:50:18;;;;;;;22.63;12.23;;;;;;;19.33;75.05;97252.97;5033402;28;20048;-65
2021/06/10 07:52:44;;;;;;;17.23;10.65;;;;;;;20.36;69.60;97248.22;5040852;28;20048;-66
2021/06/10 07:55:10;;;;;;;12.52;9.43;;;;;;;21.02;66.28;97245.28;5037463;28;20453;-66
2021/06/10 07:57:36;;;;;;;13.13;10.18;;;;;;;21.40;66.33;97240.25;5042617;28;20098;-66
2021/06/10 08:00:03;;;;;;;15.80;10.13;;;;;;;22.35;61.50;97248.41;5040893;28;20041;-65
2021/06/10 08:02:29;;;;;;;14.35;10.25;;;;;;;22.29;61.71;97248.91;5041143;28;20041;-65
2021/06/10 08:04:54;;;;;;;12.88;9.27;;;;;;;22.31;61.90;97257.66;5043424;28;20051;-65
2021/06/10 08:07:20;;;;;;;13.45;9.88;;;;;;;22.68;60.99;97243.66;5039448;28;20045;-65
2021/06/10 08:09:45;;;;;;;13.95;10.30;;;;;;;22.48;62.01;97249.31;5042946;28;20067;-66
2021/06/10 08:12:11;;;;;;;13.18;8.98;;;;;;;23.59;58.37;97251.44;5037641;28;20079;-65
2021/06/10 08:14:36;;;;;;;13.18;9.23;;;;;;;24.22;56.02;97242.50;5041056;28;20393;-64
2021/06/10 08:17:01;;;;;;;15.32;10.13;;;;;;;23.70;56.18;97249.13;5042632;28;20044;-62
2021/06/10 08:19:27;;;;;;;15.70;10.18;;;;;;;23.53;57.12;97248.38;5038138;28;20102;-63
2021/06/10 08:21:52;;;;;;;13.15;9.68;;;;;;;23.13;57.92;97247.81;5043050;28;20045;-64
2021/06/10 08:24:18;;;;;;;13.68;10.00;;;;;;;23.14;58.89;97250.19;5039716;28;20045;-64
2021/06/10 08:26:44;;;;;;;17.00;9.88;;;;;;;23.32;58.45;97243.34;5042414;28;20104;-63
2021/06/10 08:29:10;;;;;;;14.43;10.57;;;;;;;23.19;58.69;97248.84;5040957;28;20420;-65
2021/06/10 08:31:36;;;;;;;14.88;10.30;;;;;;;23.47;58.16;97248.13;5041369;28;20041;-64
2021/06/10 08:34:02;;;;;;;13.32;9.35;;;;;;;24.12;56.65;97234.41;5049398;28;20122;-64
2021/06/10 08:36:28;;;;;;;12.90;9.50;;;;;;;24.23;55.39;97237.66;5041386;28;20059;-64
2021/06/10 08:38:53;;;;;;;13.77;9.93;;;;;;;23.76;57.74;97236.16;5041859;28;20392;-63
2021/06/10 08:41:19;;;;;;;13.90;9.65;;;;;;;23.19;59.17;97241.28;5037052;28;20040;-62
2021/06/10 08:43:45;;;;;;;14.73;10.65;;;;;;;23.68;57.20;97237.59;5040825;28;20396;-63
2021/06/10 08:46:12;;;;;;;13.13;9.40;;;;;;;24.24;56.21;97239.25;5036415;28;20427;-64
2021/06/10 08:48:40;;;;;;;13.68;9.60;;;;;;;24.83;53.72;97233.47;5042318;28;20041;-65
2021/06/10 08:51:07;;;;;;;13.68;9.45;;;;;;;25.28;52.52;97229.63;5062947;22;20048;-63
2021/06/10 08:53:33;;;;;;;14.70;9.60;;;;;;;25.32;51.78;97227.50;5069136;28;20047;-64
2021/06/10 08:55:59;;;;;;;10.15;8.23;;;;;;;25.61;51.65;97232.13;5077800;28;20672;-65
2021/06/10 08:58:27;;;;;;;13.60;8.80;;;;;;;25.03;52.19;97236.03;5069646;28;20048;-65
2021/06/10 09:00:54;;;;;;;12.55;9.20;;;;;;;24.54;53.64;97234.38;5082100;28;20043;-67
2021/06/10 09:03:32;;;;;;;13.98;9.02;;;;;;;24.09;54.98;97238.88;5080016;28;20048;-65
2021/06/10 09:06:06;;;;;;;13.43;8.95;;;;;;;23.91;55.59;97238.59;5079498;28;20036;-67
2021/06/10 09:08:39;;;;;;;12.45;9.18;;;;;;;24.24;55.10;97236.44;5070383;28;20040;-64
2021/06/10 09:11:14;;;;;;;10.48;8.07;;;;;;;24.77;54.32;97230.47;5072273;28;20052;-61
2021/06/10 09:13:53;;;;;;;11.35;7.97;;;;;;;24.90;53.38;97233.25;5063058;28;20032;-65
2021/06/10 09:16:26;;;;;;;11.60;8.80;;;;;;;25.29;50.92;97229.16;5076091;28;20249;-66
2021/06/10 09:19:11;;;;;;;12.80;8.07;;;;;;;24.95;53.43;97227.09;5081664;28;20101;-66
2021/06/10 09:21:42;;;;;;;10.35;7.45;;;;;;;25.16;51.62;97228.41;5079985;28;20048;-65
2021/06/10 09:24:27;;;;;;;16.98;8.00;;;;;;;25.30;51.71;97227.94;5072704;28;20032;-61
2021/06/10 09:27:09;;;;;;;13.88;7.57;;;;;;;25.32;51.48;97228.28;5077300;28;20037;-66
2021/06/10 09:29:45;;;;;;;8.95;6.57;;;;;;;25.78;51.50;97229.91;5065669;28;20084;-64
2021/06/10 09:32:18;;;;;;;12.60;7.75;;;;;;;26.29;51.56;97224.03;5075085;28;20054;-65
2021/06/10 09:34:50;;;;;;;10.25;7.30;;;;;;;26.11;49.65;97224.72;5082397;28;20036;-66
2021/06/10 09:37:25;;;;;;;14.02;8.75;;;;;;;25.18;53.11;97237.13;5067717;28;20139;-65
2021/06/10 09:39:55;;;;;;;13.95;8.68;;;;;;;24.76;53.35;97228.91;5062125;28;20048;-65
2021/06/10 09:42:30;;;;;;;12.15;8.95;;;;;;;24.80;53.99;97227.53;5054957;28;20513;-67
2021/06/10 09:44:58;;;;;;;13.05;8.70;;;;;;;24.59;56.02;97228.22;5075679;28;20040;-67
2021/06/10 09:47:39;;;;;;;12.55;9.57;;;;;;;23.66;58.36;97229.66;5075990;28;20052;-67
2021/06/10 09:50:30;;;;;;;14.65;9.07;;;;;;;23.97;58.12;97220.06;5075606;28;20070;-64
2021/06/10 09:53:04;;;;;;;11.18;8.75;;;;;;;24.38;57.77;97215.63;5091193;28;20084;-66
2021/06/10 09:55:33;;;;;;;12.57;9.13;;;;;;;24.70;55.33;97213.88;5062749;28;20075;-66
2021/06/10 09:58:13;;;;;;;10.88;8.52;;;;;;;24.15;56.78;97220.31;5081009;28;20036;-65
2021/06/10 10:00:45;;;;;;;13.07;9.07;;;;;;;24.27;57.71;97213.16;5080400;28;20092;-65
2021/06/10 10:03:10;;;;;;;11.52;8.68;;;;;;;24.74;55.84;97222.94;5076089;28;20044;-63
2021/06/10 10:05:36;;;;;;;14.00;10.20;;;;;;;25.06;55.16;97215.53;5057823;28;20054;-65
2021/06/10 10:08:01;;;;;;;13.55;9.82;;;;;;;24.91;53.84;97213.19;5067871;28;20483;-65
2021/06/10 10:10:27;;;;;;;10.35;7.95;;;;;;;25.02;54.26;97207.22;5055323;28;20036;-67
2021/06/10 10:12:53;;;;;;;10.30;8.70;;;;;;;24.90;54.80;97208.03;5075852;28;20043;-65
2021/06/10 10:15:19;;;;;;;14.00;8.18;;;;;;;25.31;54.52;97192.28;5059641;28;20156;-67
2021/06/10 10:17:48;;;;;;;15.40;10.32;;;;;;;25.36;53.80;97188.91;5069897;28;20227;-66
2021/06/10 10:20:15;;;;;;;13.75;8.73;;;;;;;25.74;52.83;97191.53;5073594;28;20051;-66
2021/06/10 10:22:42;;;;;;;11.27;8.10;;;;;;;25.04;54.58;97185.13;5071010;28;20048;-66
2021/06/10 10:25:08;;;;;;;11.55;8.02;;;;;;;25.10;54.30;97183.34;5073579;28;20451;-66
2021/06/10 10:27:34;;;;;;;14.18;8.60;;;;;;;24.75;55.63;97185.31;5081365;28;20040;-64
2021/06/10 10:30:00;;;;;;;13.60;8.80;;;;;;;25.02;54.52;97181.25;5062984;28;20063;-66
2021/06/10 10:32:28;;;;;;;12.07;8.55;;;;;;;24.82;54.13;97181.50;5077040;28;20052;-66
2021/06/10 10:35:13;;;;;;;15.40;8.52;;;;;;;24.46;55.70;97177.78;5066736;28;20068;-66
2021/06/10 10:37:38;;;;;;;12.55;7.97;;;;;;;25.09;54.83;97173.38;5080065;28;20051;-67
2021/06/10 10:40:08;;;;;;;10.88;8.02;;;;;;;25.54;52.17;97175.03;5074901;28;20039;-64
2021/06/10 10:42:39;;;;;;;10.15;8.40;;;;;;;25.39;52.97;97173.97;5071778;28;20058;-65
2021/06/10 10:45:18;;;;;;;12.98;7.32;;;;;;;25.82;51.41;97174.44;5057120;28;20057;-64
2021/06/10 10:48:04;;;;;;;10.65;7.47;;;;;;;25.54;51.88;97166.63;5077076;28;20441;-63
2021/06/10 10:50:37;;;;;;;13.80;7.35;;;;;;;25.64;52.41;97161.88;5078209;28;20078;-64
2021/06/10 10:53:04;;;;;;;8.88;7.05;;;;;;;25.51;52.41;97150.69;5088218;28;20131;-64
2021/06/10 10:55:30;;;;;;;10.30;7.72;;;;;;;25.39;52.49;97143.16;5099932;28;20043;-63
2021/06/10 10:58:15;;;;;;;11.82;7.90;;;;;;;25.31;53.26;97155.84;5076266;28;20559;-64
2021/06/10 11:00:56;;;;;;;11.55;7.70;;;;;;;25.23;52.49;97151.69;5083841;28;20047;-63
2021/06/10 11:03:33;;;;;;;9.93;7.55;;;;;;;25.04;53.54;97150.75;5054667;28;20131;-63
2021/06/10 11:06:22;;;;;;;9.80;7.43;;;;;;;25.44;52.75;97153.75;5062723;28;20073;-64
2021/06/10 11:09:15;;;;;;;10.57;7.88;;;;;;;25.16;51.16;97152.72;5079121;28;20040;-64
2021/06/10 11:11:57;;;;;;;13.75;7.95;;;;;;;25.00;52.76;97150.88;5079622;28;20047;-64
2021/06/10 11:14:53;;;;;;;9.25;6.78;;;;;;;24.89;53.88;97144.84;5075476;28;21165;-65
2021/06/10 11:17:29;;;;;;;9.02;6.90;;;;;;;24.79;54.54;97138.34;5075218;28;20044;-65
2021/06/10 11:20:07;;;;;;;9.60;7.47;;;;;;;24.62;53.73;97137.72;5080796;28;20040;-65
2021/06/10 11:22:35;;;;;;;15.63;7.35;;;;;;;24.82;53.16;97140.25;5078788;28;20041;-66